sensor_id;sensor_type;location;lat;lon;timestamp;P1;durP1;ratioP1;P2;durP2;ratioP2
71806;SDS011;59655;42.590;23.364;2023-06-01T00:01:30;18.45;;;10.68;;
71806;SDS011;59655;42.590;23.364;2023-06-01T00:04:01;18.98;;;10.77;;
71806;SDS011;59655;42.590;23.364;2023-06-01T00:06:26;19.52;;;11.13;;
71806;SDS011;59655;42.590;23.364;2023-06-01T00:08:55;20.38;;;11.10;;
71806;SDS011;59655;42.590;23.364;2023-06-01T00:11:21;21.85;;;11.48;;
71806;SDS011;59655;42.590;23.364;2023-06-01T00:13:48;18.38;;;10.90;;
71806;SDS011;59655;42.590;23.364;2023-06-01T00:16:14;22.15;;;11.27;;
71806;SDS011;59655;42.590;23.364;2023-06-01T00:18:40;19.98;;;11.55;;
71806;SDS011;59655;42.590;23.364;2023-06-01T00:21:06;18.60;;;11.30;;
71806;SDS011;59655;42.590;23.364;2023-06-01T00:23:33;18.95;;;11.60;;
71806;SDS011;59655;42.590;23.364;2023-06-01T00:28:26;22.42;;;11.82;;
71806;SDS011;59655;42.590;23.364;2023-06-01T00:30:52;20.80;;;11.50;;
71806;SDS011;59655;42.590;23.364;2023-06-01T00:33:21;21.13;;;11.57;;
71806;SDS011;59655;42.590;23.364;2023-06-01T00:35:47;20.33;;;11.25;;
71806;SDS011;59655;42.590;23.364;2023-06-01T00:38:13;18.00;;;11.02;;
71806;SDS011;59655;42.590;23.364;2023-06-01T00:40:38;19.08;;;10.32;;
71806;SDS011;59655;42.590;23.364;2023-06-01T00:43:04;19.40;;;10.60;;
71806;SDS011;59655;42.590;23.364;2023-06-01T00:45:29;20.13;;;10.57;;
71806;SDS011;59655;42.590;23.364;2023-06-01T00:47:55;18.83;;;11.07;;
71806;SDS011;59655;42.590;23.364;2023-06-01T00:50:21;19.65;;;10.63;;
71806;SDS011;59655;42.590;23.364;2023-06-01T00:52:48;19.85;;;10.45;;
71806;SDS011;59655;42.590;23.364;2023-06-01T00:57:40;18.65;;;10.65;;
71806;SDS011;59655;42.590;23.364;2023-06-01T01:00:08;17.95;;;10.77;;
71806;SDS011;59655;42.590;23.364;2023-06-01T01:02:44;19.17;;;10.43;;
71806;SDS011;59655;42.590;23.364;2023-06-01T01:10:08;21.40;;;10.60;;
71806;SDS011;59655;42.590;23.364;2023-06-01T01:13:05;16.35;;;9.82;;
71806;SDS011;59655;42.590;23.364;2023-06-01T01:18:08;14.65;;;9.82;;
71806;SDS011;59655;42.590;23.364;2023-06-01T01:20:44;17.75;;;10.23;;
71806;SDS011;59655;42.590;23.364;2023-06-01T01:31:28;17.40;;;10.13;;
71806;SDS011;59655;42.590;23.364;2023-06-01T01:33:55;19.90;;;10.18;;
71806;SDS011;59655;42.590;23.364;2023-06-01T01:36:23;19.73;;;10.23;;
71806;SDS011;59655;42.590;23.364;2023-06-01T01:38:49;18.52;;;10.30;;
71806;SDS011;59655;42.590;23.364;2023-06-01T01:41:15;17.60;;;9.90;;
71806;SDS011;59655;42.590;23.364;2023-06-01T01:43:41;15.18;;;9.90;;
71806;SDS011;59655;42.590;23.364;2023-06-01T01:51:17;18.35;;;9.77;;
71806;SDS011;59655;42.590;23.364;2023-06-01T01:53:47;22.23;;;9.70;;
71806;SDS011;59655;42.590;23.364;2023-06-01T01:56:15;19.73;;;9.32;;
71806;SDS011;59655;42.590;23.364;2023-06-01T01:58:42;18.40;;;10.15;;
71806;SDS011;59655;42.590;23.364;2023-06-01T02:01:08;16.90;;;9.23;;
71806;SDS011;59655;42.590;23.364;2023-06-01T02:03:35;20.63;;;9.98;;
71806;SDS011;59655;42.590;23.364;2023-06-01T02:06:00;17.85;;;8.80;;
71806;SDS011;59655;42.590;23.364;2023-06-01T02:08:26;20.88;;;9.52;;
71806;SDS011;59655;42.590;23.364;2023-06-01T02:10:51;14.98;;;9.68;;
71806;SDS011;59655;42.590;23.364;2023-06-01T02:13:16;26.58;;;13.02;;
71806;SDS011;59655;42.590;23.364;2023-06-01T02:15:42;23.63;;;13.20;;
71806;SDS011;59655;42.590;23.364;2023-06-01T02:18:07;18.90;;;11.07;;
71806;SDS011;59655;42.590;23.364;2023-06-01T02:20:33;18.73;;;10.52;;
71806;SDS011;59655;42.590;23.364;2023-06-01T02:22:58;21.77;;;10.70;;
71806;SDS011;59655;42.590;23.364;2023-06-01T02:25:23;18.42;;;9.95;;
71806;SDS011;59655;42.590;23.364;2023-06-01T02:27:49;16.40;;;8.77;;
71806;SDS011;59655;42.590;23.364;2023-06-01T02:30:15;18.95;;;10.40;;
71806;SDS011;59655;42.590;23.364;2023-06-01T02:32:41;17.02;;;9.48;;
71806;SDS011;59655;42.590;23.364;2023-06-01T02:35:10;20.92;;;10.02;;
71806;SDS011;59655;42.590;23.364;2023-06-01T02:37:35;20.25;;;9.63;;
71806;SDS011;59655;42.590;23.364;2023-06-01T02:40:02;17.80;;;10.43;;
71806;SDS011;59655;42.590;23.364;2023-06-01T02:42:28;21.25;;;10.07;;
71806;SDS011;59655;42.590;23.364;2023-06-01T02:44:53;22.17;;;10.23;;
71806;SDS011;59655;42.590;23.364;2023-06-01T02:47:19;19.10;;;10.35;;
71806;SDS011;59655;42.590;23.364;2023-06-01T02:49:44;17.45;;;9.80;;
71806;SDS011;59655;42.590;23.364;2023-06-01T02:52:10;22.40;;;10.05;;
71806;SDS011;59655;42.590;23.364;2023-06-01T02:54:35;19.20;;;10.57;;
71806;SDS011;59655;42.590;23.364;2023-06-01T02:57:00;20.40;;;9.73;;
71806;SDS011;59655;42.590;23.364;2023-06-01T02:59:26;20.33;;;10.15;;
71806;SDS011;59655;42.590;23.364;2023-06-01T03:01:52;18.23;;;9.88;;
71806;SDS011;59655;42.590;23.364;2023-06-01T03:04:17;20.05;;;10.32;;
71806;SDS011;59655;42.590;23.364;2023-06-01T03:06:43;21.77;;;10.77;;
71806;SDS011;59655;42.590;23.364;2023-06-01T03:09:10;18.65;;;10.88;;
71806;SDS011;59655;42.590;23.364;2023-06-01T03:11:41;22.65;;;10.15;;
71806;SDS011;59655;42.590;23.364;2023-06-01T03:14:07;19.25;;;9.73;;
71806;SDS011;59655;42.590;23.364;2023-06-01T03:16:32;18.95;;;9.88;;
71806;SDS011;59655;42.590;23.364;2023-06-01T03:18:58;16.92;;;9.48;;
71806;SDS011;59655;42.590;23.364;2023-06-01T03:21:23;20.55;;;10.38;;
71806;SDS011;59655;42.590;23.364;2023-06-01T03:23:49;21.67;;;10.45;;
71806;SDS011;59655;42.590;23.364;2023-06-01T03:26:15;19.77;;;10.95;;
71806;SDS011;59655;42.590;23.364;2023-06-01T03:28:43;21.92;;;10.02;;
71806;SDS011;59655;42.590;23.364;2023-06-01T03:31:09;24.75;;;10.63;;
71806;SDS011;59655;42.590;23.364;2023-06-01T03:33:36;20.67;;;10.48;;
71806;SDS011;59655;42.590;23.364;2023-06-01T03:36:02;27.63;;;10.55;;
71806;SDS011;59655;42.590;23.364;2023-06-01T03:38:29;28.30;;;11.30;;
71806;SDS011;59655;42.590;23.364;2023-06-01T03:40:55;17.10;;;10.18;;
71806;SDS011;59655;42.590;23.364;2023-06-01T03:43:20;21.38;;;10.88;;
71806;SDS011;59655;42.590;23.364;2023-06-01T03:45:46;20.52;;;9.68;;
71806;SDS011;59655;42.590;23.364;2023-06-01T03:48:11;16.30;;;9.30;;
71806;SDS011;59655;42.590;23.364;2023-06-01T03:50:37;18.83;;;9.95;;
71806;SDS011;59655;42.590;23.364;2023-06-01T03:53:02;19.67;;;9.88;;
71806;SDS011;59655;42.590;23.364;2023-06-01T03:55:27;26.52;;;10.73;;
71806;SDS011;59655;42.590;23.364;2023-06-01T03:57:54;19.92;;;10.75;;
71806;SDS011;59655;42.590;23.364;2023-06-01T04:00:20;16.48;;;9.73;;
71806;SDS011;59655;42.590;23.364;2023-06-01T04:02:49;24.05;;;9.85;;
71806;SDS011;59655;42.590;23.364;2023-06-01T04:05:15;17.65;;;9.45;;
71806;SDS011;59655;42.590;23.364;2023-06-01T04:07:45;22.27;;;10.52;;
71806;SDS011;59655;42.590;23.364;2023-06-01T04:10:12;30.35;;;12.50;;
71806;SDS011;59655;42.590;23.364;2023-06-01T04:12:39;32.25;;;11.55;;
71806;SDS011;59655;42.590;23.364;2023-06-01T04:15:07;29.75;;;11.30;;
71806;SDS011;59655;42.590;23.364;2023-06-01T04:17:35;17.60;;;10.02;;
71806;SDS011;59655;42.590;23.364;2023-06-01T04:20:01;20.83;;;10.25;;
71806;SDS011;59655;42.590;23.364;2023-06-01T04:22:26;17.10;;;9.38;;
71806;SDS011;59655;42.590;23.364;2023-06-01T04:24:52;19.70;;;9.80;;
71806;SDS011;59655;42.590;23.364;2023-06-01T04:27:17;18.25;;;9.25;;
71806;SDS011;59655;42.590;23.364;2023-06-01T04:29:43;18.92;;;9.80;;
71806;SDS011;59655;42.590;23.364;2023-06-01T04:32:09;18.63;;;10.23;;
71806;SDS011;59655;42.590;23.364;2023-06-01T04:34:35;22.17;;;10.57;;
71806;SDS011;59655;42.590;23.364;2023-06-01T04:37:00;22.73;;;11.80;;
71806;SDS011;59655;42.590;23.364;2023-06-01T04:39:29;21.65;;;12.13;;
71806;SDS011;59655;42.590;23.364;2023-06-01T04:41:54;27.77;;;12.57;;
71806;SDS011;59655;42.590;23.364;2023-06-01T04:44:20;25.48;;;12.15;;
71806;SDS011;59655;42.590;23.364;2023-06-01T04:46:46;18.92;;;11.23;;
71806;SDS011;59655;42.590;23.364;2023-06-01T04:49:15;24.33;;;12.02;;
71806;SDS011;59655;42.590;23.364;2023-06-01T04:51:40;25.73;;;11.57;;
71806;SDS011;59655;42.590;23.364;2023-06-01T04:54:07;20.48;;;10.68;;
71806;SDS011;59655;42.590;23.364;2023-06-01T04:56:32;21.10;;;10.98;;
71806;SDS011;59655;42.590;23.364;2023-06-01T04:58:58;21.38;;;10.35;;
71806;SDS011;59655;42.590;23.364;2023-06-01T05:01:25;21.27;;;11.02;;
71806;SDS011;59655;42.590;23.364;2023-06-01T05:03:51;20.58;;;10.30;;
71806;SDS011;59655;42.590;23.364;2023-06-01T05:06:20;19.48;;;10.35;;
71806;SDS011;59655;42.590;23.364;2023-06-01T05:08:46;18.40;;;10.23;;
71806;SDS011;59655;42.590;23.364;2023-06-01T05:11:11;15.77;;;9.90;;
71806;SDS011;59655;42.590;23.364;2023-06-01T05:13:37;19.75;;;10.10;;
71806;SDS011;59655;42.590;23.364;2023-06-01T05:16:04;17.67;;;9.35;;
71806;SDS011;59655;42.590;23.364;2023-06-01T05:18:31;18.73;;;10.02;;
71806;SDS011;59655;42.590;23.364;2023-06-01T05:20:57;19.42;;;9.80;;
71806;SDS011;59655;42.590;23.364;2023-06-01T05:23:23;20.02;;;10.55;;
71806;SDS011;59655;42.590;23.364;2023-06-01T05:25:49;19.05;;;9.55;;
71806;SDS011;59655;42.590;23.364;2023-06-01T05:28:15;17.35;;;9.52;;
71806;SDS011;59655;42.590;23.364;2023-06-01T05:30:41;18.75;;;9.73;;
71806;SDS011;59655;42.590;23.364;2023-06-01T05:33:06;18.45;;;10.27;;
71806;SDS011;59655;42.590;23.364;2023-06-01T05:35:32;21.33;;;10.30;;
71806;SDS011;59655;42.590;23.364;2023-06-01T05:37:57;22.17;;;11.40;;
71806;SDS011;59655;42.590;23.364;2023-06-01T05:40:22;23.60;;;11.98;;
71806;SDS011;59655;42.590;23.364;2023-06-01T05:42:48;22.63;;;10.93;;
71806;SDS011;59655;42.590;23.364;2023-06-01T05:45:13;21.10;;;10.75;;
71806;SDS011;59655;42.590;23.364;2023-06-01T05:47:39;24.15;;;11.27;;
71806;SDS011;59655;42.590;23.364;2023-06-01T05:50:07;21.48;;;10.60;;
71806;SDS011;59655;42.590;23.364;2023-06-01T05:52:33;24.40;;;11.20;;
71806;SDS011;59655;42.590;23.364;2023-06-01T05:54:58;22.20;;;11.07;;
71806;SDS011;59655;42.590;23.364;2023-06-01T05:57:24;21.42;;;10.70;;
71806;SDS011;59655;42.590;23.364;2023-06-01T05:59:49;18.50;;;10.80;;
71806;SDS011;59655;42.590;23.364;2023-06-01T06:02:15;24.80;;;11.18;;
71806;SDS011;59655;42.590;23.364;2023-06-01T06:04:41;21.85;;;11.25;;
71806;SDS011;59655;42.590;23.364;2023-06-01T06:07:08;21.63;;;10.50;;
71806;SDS011;59655;42.590;23.364;2023-06-01T06:09:33;22.40;;;10.88;;
71806;SDS011;59655;42.590;23.364;2023-06-01T06:11:59;21.95;;;11.18;;
71806;SDS011;59655;42.590;23.364;2023-06-01T06:14:26;20.42;;;10.18;;
71806;SDS011;59655;42.590;23.364;2023-06-01T06:16:51;20.48;;;10.82;;
71806;SDS011;59655;42.590;23.364;2023-06-01T06:19:17;19.65;;;10.00;;
71806;SDS011;59655;42.590;23.364;2023-06-01T06:21:43;18.15;;;10.32;;
71806;SDS011;59655;42.590;23.364;2023-06-01T06:24:08;20.10;;;11.18;;
71806;SDS011;59655;42.590;23.364;2023-06-01T06:26:34;20.00;;;11.18;;
71806;SDS011;59655;42.590;23.364;2023-06-01T06:28:59;24.98;;;10.38;;
71806;SDS011;59655;42.590;23.364;2023-06-01T06:31:25;19.40;;;10.55;;
71806;SDS011;59655;42.590;23.364;2023-06-01T06:33:51;23.00;;;9.93;;
71806;SDS011;59655;42.590;23.364;2023-06-01T06:36:17;20.58;;;11.05;;
71806;SDS011;59655;42.590;23.364;2023-06-01T06:38:42;20.30;;;9.98;;
71806;SDS011;59655;42.590;23.364;2023-06-01T06:41:08;24.05;;;10.45;;
71806;SDS011;59655;42.590;23.364;2023-06-01T06:43:33;24.88;;;11.10;;
71806;SDS011;59655;42.590;23.364;2023-06-01T06:45:59;19.67;;;10.32;;
71806;SDS011;59655;42.590;23.364;2023-06-01T06:48:24;19.35;;;10.35;;
71806;SDS011;59655;42.590;23.364;2023-06-01T06:50:50;21.33;;;10.98;;
71806;SDS011;59655;42.590;23.364;2023-06-01T06:53:15;21.85;;;11.00;;
71806;SDS011;59655;42.590;23.364;2023-06-01T06:55:42;24.55;;;10.30;;
71806;SDS011;59655;42.590;23.364;2023-06-01T06:58:08;19.77;;;10.90;;
71806;SDS011;59655;42.590;23.364;2023-06-01T07:00:35;22.95;;;11.18;;
71806;SDS011;59655;42.590;23.364;2023-06-01T07:03:01;27.70;;;12.30;;
71806;SDS011;59655;42.590;23.364;2023-06-01T07:05:26;23.70;;;12.18;;
71806;SDS011;59655;42.590;23.364;2023-06-01T07:07:52;21.88;;;11.73;;
71806;SDS011;59655;42.590;23.364;2023-06-01T07:10:17;26.92;;;13.32;;
71806;SDS011;59655;42.590;23.364;2023-06-01T07:12:43;31.17;;;14.85;;
71806;SDS011;59655;42.590;23.364;2023-06-01T07:15:09;29.40;;;14.43;;
71806;SDS011;59655;42.590;23.364;2023-06-01T07:17:35;28.63;;;14.77;;
71806;SDS011;59655;42.590;23.364;2023-06-01T07:20:02;34.15;;;15.82;;
71806;SDS011;59655;42.590;23.364;2023-06-01T07:22:32;36.75;;;17.40;;
71806;SDS011;59655;42.590;23.364;2023-06-01T07:24:58;39.22;;;18.88;;
71806;SDS011;59655;42.590;23.364;2023-06-01T07:27:23;39.30;;;18.05;;
71806;SDS011;59655;42.590;23.364;2023-06-01T07:29:49;39.92;;;17.25;;
71806;SDS011;59655;42.590;23.364;2023-06-01T07:32:20;40.25;;;18.38;;
71806;SDS011;59655;42.590;23.364;2023-06-01T07:34:46;38.65;;;19.05;;
71806;SDS011;59655;42.590;23.364;2023-06-01T07:37:12;43.63;;;19.70;;
71806;SDS011;59655;42.590;23.364;2023-06-01T07:39:37;41.25;;;18.10;;
71806;SDS011;59655;42.590;23.364;2023-06-01T07:42:02;44.28;;;20.05;;
71806;SDS011;59655;42.590;23.364;2023-06-01T07:44:28;45.28;;;19.73;;
71806;SDS011;59655;42.590;23.364;2023-06-01T07:46:53;38.58;;;18.63;;
71806;SDS011;59655;42.590;23.364;2023-06-01T07:49:19;39.85;;;19.30;;
71806;SDS011;59655;42.590;23.364;2023-06-01T07:51:44;43.55;;;19.27;;
71806;SDS011;59655;42.590;23.364;2023-06-01T07:54:10;44.70;;;19.83;;
71806;SDS011;59655;42.590;23.364;2023-06-01T07:56:36;45.70;;;20.10;;
71806;SDS011;59655;42.590;23.364;2023-06-01T07:59:01;42.28;;;18.77;;
71806;SDS011;59655;42.590;23.364;2023-06-01T08:01:27;52.55;;;20.08;;
71806;SDS011;59655;42.590;23.364;2023-06-01T08:03:52;45.00;;;19.55;;
71806;SDS011;59655;42.590;23.364;2023-06-01T08:06:19;50.90;;;22.25;;
71806;SDS011;59655;42.590;23.364;2023-06-01T08:08:47;46.92;;;20.23;;
71806;SDS011;59655;42.590;23.364;2023-06-01T08:11:14;46.53;;;20.80;;
71806;SDS011;59655;42.590;23.364;2023-06-01T08:13:40;50.60;;;22.17;;
71806;SDS011;59655;42.590;23.364;2023-06-01T08:16:06;43.47;;;22.55;;
71806;SDS011;59655;42.590;23.364;2023-06-01T08:18:32;42.22;;;20.85;;
71806;SDS011;59655;42.590;23.364;2023-06-01T08:20:58;44.25;;;19.92;;
71806;SDS011;59655;42.590;23.364;2023-06-01T08:23:25;46.17;;;20.02;;
71806;SDS011;59655;42.590;23.364;2023-06-01T08:25:51;40.08;;;19.30;;
71806;SDS011;59655;42.590;23.364;2023-06-01T08:28:17;41.08;;;19.25;;
71806;SDS011;59655;42.590;23.364;2023-06-01T08:30:42;45.13;;;20.23;;
71806;SDS011;59655;42.590;23.364;2023-06-01T08:33:08;47.90;;;20.58;;
71806;SDS011;59655;42.590;23.364;2023-06-01T08:35:33;41.80;;;19.50;;
71806;SDS011;59655;42.590;23.364;2023-06-01T08:38:02;45.00;;;19.17;;
71806;SDS011;59655;42.590;23.364;2023-06-01T08:40:28;50.47;;;21.77;;
71806;SDS011;59655;42.590;23.364;2023-06-01T08:42:57;42.35;;;20.05;;
71806;SDS011;59655;42.590;23.364;2023-06-01T08:45:27;44.80;;;19.30;;
71806;SDS011;59655;42.590;23.364;2023-06-01T08:47:53;49.15;;;21.38;;
71806;SDS011;59655;42.590;23.364;2023-06-01T08:50:20;52.50;;;21.70;;
71806;SDS011;59655;42.590;23.364;2023-06-01T08:52:46;42.55;;;20.70;;
71806;SDS011;59655;42.590;23.364;2023-06-01T08:55:13;51.80;;;22.08;;
71806;SDS011;59655;42.590;23.364;2023-06-01T08:57:40;56.55;;;23.88;;
71806;SDS011;59655;42.590;23.364;2023-06-01T09:00:07;52.13;;;24.17;;
71806;SDS011;59655;42.590;23.364;2023-06-01T09:02:34;54.47;;;24.90;;
71806;SDS011;59655;42.590;23.364;2023-06-01T09:04:59;60.38;;;24.38;;
71806;SDS011;59655;42.590;23.364;2023-06-01T09:07:25;56.97;;;27.05;;
71806;SDS011;59655;42.590;23.364;2023-06-01T09:09:51;64.40;;;27.25;;
71806;SDS011;59655;42.590;23.364;2023-06-01T09:12:18;62.70;;;25.45;;
71806;SDS011;59655;42.590;23.364;2023-06-01T09:15:12;72.90;;;28.42;;
71806;SDS011;59655;42.590;23.364;2023-06-01T09:17:43;64.75;;;28.45;;
71806;SDS011;59655;42.590;23.364;2023-06-01T09:20:24;64.75;;;27.45;;
71806;SDS011;59655;42.590;23.364;2023-06-01T09:22:51;56.80;;;26.98;;
71806;SDS011;59655;42.590;23.364;2023-06-01T09:25:29;76.50;;;30.90;;
71806;SDS011;59655;42.590;23.364;2023-06-01T09:27:59;71.35;;;30.52;;
71806;SDS011;59655;42.590;23.364;2023-06-01T09:30:26;61.10;;;27.70;;
71806;SDS011;59655;42.590;23.364;2023-06-01T09:33:07;65.80;;;28.83;;
71806;SDS011;59655;42.590;23.364;2023-06-01T09:35:45;65.57;;;26.95;;
71806;SDS011;59655;42.590;23.364;2023-06-01T09:38:23;66.15;;;27.40;;
71806;SDS011;59655;42.590;23.364;2023-06-01T09:40:56;78.75;;;30.63;;
71806;SDS011;59655;42.590;23.364;2023-06-01T09:48:36;72.82;;;29.20;;
71806;SDS011;59655;42.590;23.364;2023-06-01T09:51:02;70.55;;;29.33;;
71806;SDS011;59655;42.590;23.364;2023-06-01T09:53:27;67.47;;;27.67;;
71806;SDS011;59655;42.590;23.364;2023-06-01T09:55:59;51.08;;;24.73;;
71806;SDS011;59655;42.590;23.364;2023-06-01T09:58:25;44.90;;;21.40;;
71806;SDS011;59655;42.590;23.364;2023-06-01T10:00:51;43.55;;;20.10;;
71806;SDS011;59655;42.590;23.364;2023-06-01T10:03:18;40.05;;;19.75;;
71806;SDS011;59655;42.590;23.364;2023-06-01T10:05:45;40.75;;;19.42;;
71806;SDS011;59655;42.590;23.364;2023-06-01T10:08:11;42.53;;;20.05;;
71806;SDS011;59655;42.590;23.364;2023-06-01T10:10:43;43.38;;;20.50;;
71806;SDS011;59655;42.590;23.364;2023-06-01T10:13:10;38.80;;;19.33;;
71806;SDS011;59655;42.590;23.364;2023-06-01T10:15:36;32.40;;;16.80;;
71806;SDS011;59655;42.590;23.364;2023-06-01T10:18:03;32.28;;;15.30;;
71806;SDS011;59655;42.590;23.364;2023-06-01T10:20:31;29.55;;;14.45;;
71806;SDS011;59655;42.590;23.364;2023-06-01T10:23:02;23.70;;;12.75;;
71806;SDS011;59655;42.590;23.364;2023-06-01T10:25:29;30.15;;;12.02;;
71806;SDS011;59655;42.590;23.364;2023-06-01T10:28:02;22.15;;;11.35;;
71806;SDS011;59655;42.590;23.364;2023-06-01T10:30:29;30.95;;;16.77;;
71806;SDS011;59655;42.590;23.364;2023-06-01T10:32:55;29.05;;;12.50;;
71806;SDS011;59655;42.590;23.364;2023-06-01T10:40:37;21.63;;;10.70;;
71806;SDS011;59655;42.590;23.364;2023-06-01T10:43:06;18.40;;;10.52;;
71806;SDS011;59655;42.590;23.364;2023-06-01T10:45:53;23.13;;;10.90;;
71806;SDS011;59655;42.590;23.364;2023-06-01T10:48:20;20.65;;;10.82;;
71806;SDS011;59655;42.590;23.364;2023-06-01T10:51:21;25.92;;;10.35;;
71806;SDS011;59655;42.590;23.364;2023-06-01T10:53:51;19.67;;;9.32;;
71806;SDS011;59655;42.590;23.364;2023-06-01T10:56:24;25.38;;;10.30;;
71806;SDS011;59655;42.590;23.364;2023-06-01T11:01:36;20.73;;;10.13;;
71806;SDS011;59655;42.590;23.364;2023-06-01T11:04:03;21.05;;;10.20;;
71806;SDS011;59655;42.590;23.364;2023-06-01T11:06:29;21.67;;;9.27;;
71806;SDS011;59655;42.590;23.364;2023-06-01T11:09:00;26.08;;;11.32;;
71806;SDS011;59655;42.590;23.364;2023-06-01T11:11:59;25.40;;;10.50;;
71806;SDS011;59655;42.590;23.364;2023-06-01T11:14:18;29.10;;;12.68;;
71806;SDS011;59655;42.590;23.364;2023-06-01T11:16:46;20.67;;;9.70;;
71806;SDS011;59655;42.590;23.364;2023-06-01T11:19:22;33.33;;;10.32;;
71806;SDS011;59655;42.590;23.364;2023-06-01T11:21:54;22.23;;;10.65;;
71806;SDS011;59655;42.590;23.364;2023-06-01T11:24:24;32.83;;;13.70;;
71806;SDS011;59655;42.590;23.364;2023-06-01T11:26:50;34.00;;;12.70;;
71806;SDS011;59655;42.590;23.364;2023-06-01T11:29:16;27.05;;;10.52;;
71806;SDS011;59655;42.590;23.364;2023-06-01T11:31:47;34.53;;;10.48;;
71806;SDS011;59655;42.590;23.364;2023-06-01T11:34:14;31.75;;;10.65;;
71806;SDS011;59655;42.590;23.364;2023-06-01T11:36:45;36.00;;;11.50;;
71806;SDS011;59655;42.590;23.364;2023-06-01T11:39:24;25.10;;;9.85;;
71806;SDS011;59655;42.590;23.364;2023-06-01T11:42:09;23.95;;;9.90;;
71806;SDS011;59655;42.590;23.364;2023-06-01T11:44:37;19.75;;;8.35;;
71806;SDS011;59655;42.590;23.364;2023-06-01T11:47:05;18.40;;;7.78;;
71806;SDS011;59655;42.590;23.364;2023-06-01T11:49:45;17.90;;;7.53;;
71806;SDS011;59655;42.590;23.364;2023-06-01T11:52:18;17.73;;;7.10;;
71806;SDS011;59655;42.590;23.364;2023-06-01T11:54:45;13.93;;;6.78;;
71806;SDS011;59655;42.590;23.364;2023-06-01T11:57:11;15.98;;;7.68;;
71806;SDS011;59655;42.590;23.364;2023-06-01T11:59:41;16.27;;;6.93;;
71806;SDS011;59655;42.590;23.364;2023-06-01T12:02:21;16.40;;;7.60;;
71806;SDS011;59655;42.590;23.364;2023-06-01T12:04:59;15.45;;;6.55;;
71806;SDS011;59655;42.590;23.364;2023-06-01T12:07:32;14.85;;;7.13;;
71806;SDS011;59655;42.590;23.364;2023-06-01T12:10:09;17.58;;;8.80;;
71806;SDS011;59655;42.590;23.364;2023-06-01T12:12:40;17.38;;;7.60;;
71806;SDS011;59655;42.590;23.364;2023-06-01T12:15:08;16.85;;;8.30;;
71806;SDS011;59655;42.590;23.364;2023-06-01T12:20:25;16.40;;;7.60;;
71806;SDS011;59655;42.590;23.364;2023-06-01T12:25:51;26.60;;;10.07;;
71806;SDS011;59655;42.590;23.364;2023-06-01T12:28:19;19.90;;;8.43;;
71806;SDS011;59655;42.590;23.364;2023-06-01T12:30:46;16.55;;;8.55;;
71806;SDS011;59655;42.590;23.364;2023-06-01T12:36:09;16.40;;;8.00;;
71806;SDS011;59655;42.590;23.364;2023-06-01T12:38:37;22.50;;;8.57;;
71806;SDS011;59655;42.590;23.364;2023-06-01T12:41:16;17.98;;;8.55;;
71806;SDS011;59655;42.590;23.364;2023-06-01T12:43:52;18.55;;;8.55;;
71806;SDS011;59655;42.590;23.364;2023-06-01T12:48:48;21.20;;;10.98;;
71806;SDS011;59655;42.590;23.364;2023-06-01T12:51:14;22.73;;;11.55;;
71806;SDS011;59655;42.590;23.364;2023-06-01T12:53:40;23.15;;;11.45;;
71806;SDS011;59655;42.590;23.364;2023-06-01T12:56:07;23.65;;;10.50;;
71806;SDS011;59655;42.590;23.364;2023-06-01T12:58:33;19.95;;;10.40;;
71806;SDS011;59655;42.590;23.364;2023-06-01T13:00:59;22.85;;;9.85;;
71806;SDS011;59655;42.590;23.364;2023-06-01T13:03:25;21.20;;;10.35;;
71806;SDS011;59655;42.590;23.364;2023-06-01T13:05:50;29.20;;;11.93;;
71806;SDS011;59655;42.590;23.364;2023-06-01T13:08:16;23.33;;;8.48;;
71806;SDS011;59655;42.590;23.364;2023-06-01T13:10:42;22.38;;;8.90;;
71806;SDS011;59655;42.590;23.364;2023-06-01T13:13:08;21.38;;;9.35;;
71806;SDS011;59655;42.590;23.364;2023-06-01T13:15:38;23.05;;;9.35;;
71806;SDS011;59655;42.590;23.364;2023-06-01T13:18:32;21.20;;;8.95;;
71806;SDS011;59655;42.590;23.364;2023-06-01T13:21:00;19.42;;;9.48;;
71806;SDS011;59655;42.590;23.364;2023-06-01T13:23:27;18.75;;;9.45;;
71806;SDS011;59655;42.590;23.364;2023-06-01T13:25:53;16.90;;;8.57;;
71806;SDS011;59655;42.590;23.364;2023-06-01T13:28:19;20.38;;;8.65;;
71806;SDS011;59655;42.590;23.364;2023-06-01T13:30:44;17.50;;;7.32;;
71806;SDS011;59655;42.590;23.364;2023-06-01T13:33:10;15.68;;;7.03;;
71806;SDS011;59655;42.590;23.364;2023-06-01T13:35:35;15.82;;;7.65;;
71806;SDS011;59655;42.590;23.364;2023-06-01T13:38:02;14.93;;;6.68;;
71806;SDS011;59655;42.590;23.364;2023-06-01T13:40:27;28.90;;;13.98;;
71806;SDS011;59655;42.590;23.364;2023-06-01T13:42:53;30.65;;;17.45;;
71806;SDS011;59655;42.590;23.364;2023-06-01T13:45:22;23.85;;;15.88;;
71806;SDS011;59655;42.590;23.364;2023-06-01T13:47:47;19.88;;;8.50;;
71806;SDS011;59655;42.590;23.364;2023-06-01T13:50:15;15.70;;;7.15;;
71806;SDS011;59655;42.590;23.364;2023-06-01T13:52:40;20.05;;;7.18;;
71806;SDS011;59655;42.590;23.364;2023-06-01T13:55:06;15.98;;;7.53;;
71806;SDS011;59655;42.590;23.364;2023-06-01T13:57:33;15.82;;;7.57;;
71806;SDS011;59655;42.590;23.364;2023-06-01T13:59:58;18.60;;;7.65;;
71806;SDS011;59655;42.590;23.364;2023-06-01T14:02:24;17.95;;;7.97;;
71806;SDS011;59655;42.590;23.364;2023-06-01T14:04:49;20.45;;;12.13;;
71806;SDS011;59655;42.590;23.364;2023-06-01T14:07:15;15.35;;;9.52;;
71806;SDS011;59655;42.590;23.364;2023-06-01T14:09:40;17.30;;;9.90;;
71806;SDS011;59655;42.590;23.364;2023-06-01T14:12:06;20.58;;;9.88;;
71806;SDS011;59655;42.590;23.364;2023-06-01T14:14:32;23.35;;;10.43;;
71806;SDS011;59655;42.590;23.364;2023-06-01T14:16:57;20.88;;;10.25;;
71806;SDS011;59655;42.590;23.364;2023-06-01T14:19:23;23.63;;;11.35;;
71806;SDS011;59655;42.590;23.364;2023-06-01T14:21:50;23.63;;;11.15;;
71806;SDS011;59655;42.590;23.364;2023-06-01T14:24:15;18.95;;;10.75;;
71806;SDS011;59655;42.590;23.364;2023-06-01T14:26:41;22.38;;;11.10;;
71806;SDS011;59655;42.590;23.364;2023-06-01T14:29:06;26.48;;;16.25;;
71806;SDS011;59655;42.590;23.364;2023-06-01T14:31:33;22.88;;;12.45;;
71806;SDS011;59655;42.590;23.364;2023-06-01T14:33:58;23.65;;;13.18;;
71806;SDS011;59655;42.590;23.364;2023-06-01T14:36:24;23.77;;;13.02;;
71806;SDS011;59655;42.590;23.364;2023-06-01T14:38:50;29.52;;;14.05;;
71806;SDS011;59655;42.590;23.364;2023-06-01T14:41:15;25.70;;;12.63;;
71806;SDS011;59655;42.590;23.364;2023-06-01T14:43:41;25.20;;;13.32;;
71806;SDS011;59655;42.590;23.364;2023-06-01T14:46:06;26.50;;;14.50;;
71806;SDS011;59655;42.590;23.364;2023-06-01T14:48:32;32.78;;;16.30;;
71806;SDS011;59655;42.590;23.364;2023-06-01T14:50:57;35.35;;;14.45;;
71806;SDS011;59655;42.590;23.364;2023-06-01T14:53:23;30.38;;;16.52;;
71806;SDS011;59655;42.590;23.364;2023-06-01T14:55:48;34.63;;;14.85;;
71806;SDS011;59655;42.590;23.364;2023-06-01T14:58:13;35.95;;;15.85;;
71806;SDS011;59655;42.590;23.364;2023-06-01T15:00:39;39.55;;;16.95;;
71806;SDS011;59655;42.590;23.364;2023-06-01T15:03:05;32.00;;;15.35;;